Terminal Aerodrome Forecast
Issued by NWS Tuscon, AZ

Home | Current Version | Previous Version | Text Only | Print | Product List | Glossary On
Versions: 1 2 3 4 5 6 7 8 9 10 11 12 13
000
FTUS45 KTWC 231729
TAFDUG
TAF
KDUG 231729Z 2318/2418 15016KT P6SM SCT050 SCT090
     FM231900 22018G28KT P6SM BKN050
     FM240600 21020G30KT P6SM VCSH SCT030 BKN050
     FM241100 26016G24KT P6SM VCSH SCT030 OVC050
     FM241500 29010KT P6SM FEW035 BKN050=

USA.gov is the U.S. government's official web portal to all federal, state and local government web resources and services.